Airfield :
LOGIN :

Register | Disclaimer

   EN    FR    IT 

 










Legend :    VFR   Marginal VFR   IFR   Intensive IFR   Very Intensive IFR
Visi :
Ceiling :
>= 8 km
>= 3000ft
5 to 8 km
1000 to 3000 ft
1500m to 5 km
500 to 1000 ft
800 to 1500m
200 to 500 ft
< 800m
< 200 ft
Symbols :   Thunderstorms  Fog  Heavy snow  Heavy precipitations  Wind > 20 kt
SIGMETs :     Misc.  Thunderstorms  Icing  Turbulence  Mountain Waves  Volcanic Ashes







- Airport Elevation : 272 ft


EGWC - DCAE Cosford

CURRENT METAR :
  • 250950Z 04010KT 6000 -RA BKN006 17/15 Q1020 RERA RMK YLO1

EXPIRED METARs :
  • 250850Z 35006KT 2000 RA OVC005 17/16 Q1019 RMK YLO2
  • 250750Z 01005KT 2000 RA OVC005 16/15 Q1019 RMK YLO2

TAF AMD TAF EGWC
Valid from the 25 at 10:00 until the 25 at 18:00 UTC


251030Z 2510/2518 34007KT 2500 BR -RA OVC005
BECMG 2510/2513 7000 HZ BKN008
PROB40
TEMPO 2510/2511 2000 +RA OVC003CB
PROB30 2513/2518 8000 HZ SCT015
No reported NOTAMs for that airfield.
1 SIGMET reported for the London FIR (EGTT) :
 
Embedded thunderstorms
EGTT SIGMET 03 VALID 250900/251300 EGRR
EGTT LONDON FIR EMBD TS FCST WI N5227 E00059 - N5253 W00041 - N5455 W00022 - N5446 E00155 - N5408 E00336 - N5227 E00059 TOP FL350 MOV NNE 20KT WKN=



MET'MAP, your aeronautical weather chart ! - Copyright ORBIFLY December 2007 - Disclaimer

ORBIFLY MET'MAP TEAM :

Programming & Development : Alexandra Zaïnal
Concept & Development : Baudouin d'Aumeries
Co-Development & Prog : Marc-Olivier Méhu
Technical & hardware support : Manuel Goepfert

Contact : metmap@orbifly.com




SOURCES & CREDITS :

   NOAA